Time;durP1;ratioP1;P1;durP2;ratioP2;P2;SDS_P1;SDS_P2;PMS_P1;PMS_P2;Temp;Humidity;BMP_temperature;BMP_pressure;BME280_temperature;BME280_humidity;BME280_pressure;Samples;Min_cycle;Max_cycle;Signal;HPM_P1;HPM_P2
2022/01/02 00:01:37;;;;;;;16.00;15.40;;;22.20;93.30;;;;;;5031353;28;21000;-53
2022/01/02 00:04:04;;;;;;;17.20;16.40;;;22.20;93.50;;;;;;5031497;28;20445;-51
2022/01/02 00:06:33;;;;;;;16.80;16.30;;;22.10;93.60;;;;;;5031391;28;20445;-54
2022/01/02 00:09:04;;;;;;;16.30;15.70;;;22.10;93.70;;;;;;5031201;28;20485;-51
2022/01/02 00:11:33;;;;;;;16.80;16.20;;;22.10;93.80;;;;;;5031339;28;20515;-53
2022/01/02 00:14:07;;;;;;;16.70;16.10;;;22.10;94.00;;;;;;5031297;28;20445;-51
2022/01/02 00:16:36;;;;;;;16.47;15.77;;;22.00;94.00;;;;;;5031449;28;20449;-50
2022/01/02 00:19:07;;;;;;;16.57;15.97;;;22.00;94.10;;;;;;5031200;28;20499;-52
2022/01/02 00:21:40;;;;;;;16.47;15.97;;;21.90;94.10;;;;;;5031174;28;20962;-51
2022/01/02 00:24:12;;;;;;;17.10;16.50;;;22.00;94.30;;;;;;5031302;28;20441;-51
2022/01/02 00:26:43;;;;;;;17.20;16.60;;;21.90;94.40;;;;;;5031236;28;20448;-51
2022/01/02 00:29:10;;;;;;;16.43;15.83;;;21.90;94.50;;;;;;5031000;28;20453;-51
2022/01/02 00:31:39;;;;;;;16.33;15.73;;;21.80;94.50;;;;;;5031063;28;20472;-51
2022/01/02 00:34:06;;;;;;;16.07;15.57;;;21.80;94.60;;;;;;5031105;28;20446;-52
2022/01/02 00:36:33;;;;;;;16.23;15.63;;;21.80;94.60;;;;;;5031188;28;20445;-51
2022/01/02 00:39:00;;;;;;;16.23;15.63;;;21.80;94.70;;;;;;5031134;28;20457;-54
2022/01/02 00:41:32;;;;;;;16.80;16.10;;;21.70;94.70;;;;;;5030687;28;20476;-56
2022/01/02 00:44:08;;;;;;;16.43;15.83;;;21.70;94.90;;;;;;5031069;28;20946;-50
2022/01/02 00:46:40;;;;;;;16.90;16.20;;;21.70;94.90;;;;;;5031274;28;20447;-50
2022/01/02 00:49:09;;;;;;;16.00;15.50;;;21.70;95.10;;;;;;5031155;28;20436;-50
2022/01/02 00:51:47;;;;;;;16.40;15.87;;;21.60;95.10;;;;;;5030423;28;21014;-50
2022/01/02 00:54:16;;;;;;;16.27;15.67;;;21.60;95.20;;;;;;5031230;28;20463;-50
2022/01/02 00:56:45;;;;;;;16.10;15.60;;;21.60;95.30;;;;;;5031052;28;20472;-50
2022/01/02 00:59:26;;;;;;;15.77;15.20;;;21.50;95.40;;;;;;5031038;28;20528;-50
2022/01/02 01:02:02;;;;;;;15.70;15.03;;;21.50;95.80;;;;;;5030460;28;20990;-50
2022/01/02 01:04:31;;;;;;;16.30;15.70;;;21.50;95.60;;;;;;5031947;28;20541;-52
2022/01/02 01:07:03;;;;;;;16.07;15.47;;;21.50;95.70;;;;;;5034693;28;20441;-49
2022/01/02 01:09:31;;;;;;;16.37;15.87;;;21.50;95.70;;;;;;5034572;28;20445;-49
2022/01/02 01:11:59;;;;;;;16.27;15.77;;;21.50;95.80;;;;;;5034138;28;20881;-50
2022/01/02 01:14:29;;;;;;;16.53;15.93;;;21.40;95.90;;;;;;5034238;28;20869;-50
2022/01/02 01:16:56;;;;;;;16.93;16.33;;;21.40;96.00;;;;;;5034508;28;20818;-50
2022/01/02 01:19:24;;;;;;;16.53;15.93;;;21.40;96.10;;;;;;5034481;28;20445;-52
2022/01/02 01:21:51;;;;;;;16.40;15.80;;;21.40;96.50;;;;;;5034179;28;20491;-50
2022/01/02 01:24:19;;;;;;;16.40;15.80;;;21.30;96.20;;;;;;5034280;28;20453;-51
2022/01/02 01:26:48;;;;;;;15.40;14.90;;;21.30;96.40;;;;;;5033992;28;20452;-52
2022/01/02 01:29:15;;;;;;;15.90;15.40;;;21.30;96.40;;;;;;5034217;28;20528;-50
2022/01/02 01:31:44;;;;;;;16.07;15.50;;;21.30;96.50;;;;;;5033980;28;20511;-56
2022/01/02 01:34:10;;;;;;;15.60;15.10;;;21.30;96.60;;;;;;5034138;28;20507;-51
2022/01/02 01:36:37;;;;;;;16.07;15.47;;;21.30;96.60;;;;;;5034062;28;20855;-50
2022/01/02 01:39:04;;;;;;;16.03;15.53;;;21.20;96.70;;;;;;5033726;28;20441;-52
2022/01/02 01:41:34;;;;;;;15.60;15.10;;;21.20;96.80;;;;;;5033774;28;20468;-50
2022/01/02 01:44:21;;;;;;;16.47;15.77;;;21.20;96.90;;;;;;5034018;28;20844;-50
2022/01/02 01:46:54;;;;;;;17.10;16.50;;;21.20;96.90;;;;;;5033692;28;20449;-52
2022/01/02 01:49:23;;;;;;;15.93;15.40;;;21.20;97.00;;;;;;5033938;28;20507;-50
2022/01/02 01:51:50;;;;;;;16.43;15.83;;;21.20;97.10;;;;;;5033645;28;20465;-54
2022/01/02 01:54:17;;;;;;;15.80;15.30;;;21.10;97.10;;;;;;5033771;28;20456;-50
2022/01/02 01:56:46;;;;;;;16.33;15.73;;;21.10;97.10;;;;;;5033429;28;20437;-52
2022/01/02 01:59:15;;;;;;;16.30;15.70;;;21.10;97.10;;;;;;5033743;28;20441;-50
2022/01/02 02:01:41;;;;;;;15.70;15.20;;;21.10;97.20;;;;;;5033374;28;20469;-50
2022/01/02 02:04:09;;;;;;;16.30;15.70;;;21.10;97.20;;;;;;5033571;28;20445;-49
2022/01/02 02:06:37;;;;;;;15.70;15.20;;;21.10;97.30;;;;;;5033636;28;20533;-51
2022/01/02 02:09:05;;;;;;;15.70;15.20;;;21.10;97.30;;;;;;5033193;28;20481;-50
2022/01/02 02:11:32;;;;;;;16.10;15.60;;;21.10;97.40;;;;;;5033676;28;20477;-52
2022/01/02 02:13:59;;;;;;;16.60;15.77;;;21.00;97.40;;;;;;5033282;28;20456;-51
2022/01/02 02:16:27;;;;;;;15.30;14.90;;;21.00;97.40;;;;;;5032873;28;20571;-50
2022/01/02 02:18:54;;;;;;;16.83;16.33;;;21.00;97.50;;;;;;5033354;28;20495;-50
2022/01/02 02:21:29;;;;;;;16.53;15.93;;;21.00;97.50;;;;;;5032903;28;20476;-51
2022/01/02 02:23:56;;;;;;;15.70;15.20;;;21.00;97.50;;;;;;5033234;28;20960;-51
2022/01/02 02:26:23;;;;;;;15.80;15.30;;;21.00;97.60;;;;;;5033118;28;20445;-53
2022/01/02 02:28:49;;;;;;;15.80;15.30;;;21.00;97.60;;;;;;5033148;28;20481;-51
2022/01/02 02:31:16;;;;;;;15.40;14.90;;;21.00;97.70;;;;;;5033091;28;20472;-50
2022/01/02 02:33:43;;;;;;;15.93;15.43;;;20.90;97.60;;;;;;5032626;28;20529;-53
2022/01/02 02:36:10;;;;;;;16.00;15.40;;;20.90;97.70;;;;;;5033024;28;20441;-50
2022/01/02 02:38:39;;;;;;;15.80;15.27;;;20.90;98.10;;;;;;5032955;28;20810;-50
2022/01/02 02:41:06;;;;;;;15.40;14.90;;;20.90;97.80;;;;;;5032600;28;20836;-50
2022/01/02 02:43:39;;;;;;;16.03;15.53;;;20.90;97.80;;;;;;5032813;28;20445;-52
2022/01/02 02:49:05;;;;;;;16.10;15.60;;;20.80;97.90;;;;;;5024032;28;20484;-50
2022/01/02 02:51:42;;;;;;;15.60;15.10;;;20.80;98.00;;;;;;5032647;28;20556;-50
2022/01/02 02:54:17;;;;;;;15.80;15.30;;;20.80;98.00;;;;;;5032745;28;20813;-50
2022/01/02 02:56:53;;;;;;;15.93;15.43;;;20.80;98.00;;;;;;5032701;28;20451;-51
2022/01/02 02:59:20;;;;;;;15.87;15.37;;;20.80;98.10;;;;;;5032313;28;20453;-51
2022/01/02 03:01:46;;;;;;;15.73;15.23;;;20.80;98.20;;;;;;5032177;28;20519;-50
2022/01/02 03:04:13;;;;;;;16.27;15.77;;;20.70;98.20;;;;;;5032425;28;20950;-50
2022/01/02 03:06:40;;;;;;;15.30;14.80;;;20.70;98.30;;;;;;5032339;28;20460;-53
2022/01/02 03:09:08;;;;;;;15.70;15.20;;;20.70;98.40;;;;;;5032288;28;20485;-50
2022/01/02 03:11:37;;;;;;;15.70;15.20;;;20.70;98.40;;;;;;5031750;28;20481;-50
2022/01/02 03:14:04;;;;;;;16.27;15.77;;;20.70;98.40;;;;;;5032182;28;20453;-50
2022/01/02 03:16:31;;;;;;;16.10;15.60;;;20.70;98.50;;;;;;5032318;28;20498;-50
2022/01/02 03:18:58;;;;;;;15.70;15.20;;;20.70;98.60;;;;;;5032117;28;20453;-50
2022/01/02 03:21:25;;;;;;;15.80;15.30;;;20.70;98.50;;;;;;5032038;28;20468;-51
2022/01/02 03:23:52;;;;;;;16.33;15.83;;;20.70;98.60;;;;;;5031813;28;20796;-50
2022/01/02 03:26:19;;;;;;;15.80;15.30;;;20.70;98.60;;;;;;5032083;28;20472;-53
2022/01/02 03:28:47;;;;;;;16.07;15.50;;;20.70;98.60;;;;;;5031115;28;20485;-50
2022/01/02 03:31:14;;;;;;;16.30;15.77;;;20.70;98.70;;;;;;5031972;28;20500;-49
2022/01/02 03:33:43;;;;;;;15.80;15.30;;;20.70;98.70;;;;;;5031777;28;20445;-49
2022/01/02 03:36:10;;;;;;;15.70;15.20;;;20.70;98.60;;;;;;5031800;28;20868;-49
2022/01/02 03:38:37;;;;;;;16.37;15.80;;;20.70;98.70;;;;;;5031827;28;20441;-53
2022/01/02 03:41:04;;;;;;;15.50;15.00;;;20.60;98.70;;;;;;5031885;28;20476;-50
2022/01/02 03:43:30;;;;;;;15.80;15.30;;;20.60;98.70;;;;;;5031666;28;20456;-50
2022/01/02 03:46:02;;;;;;;16.57;15.87;;;20.60;98.70;;;;;;5031528;28;20452;-51
2022/01/02 03:48:29;;;;;;;15.60;15.10;;;20.60;98.80;;;;;;5031717;28;21001;-50
2022/01/02 03:50:55;;;;;;;16.00;15.40;;;20.60;98.80;;;;;;5031480;28;20461;-50
2022/01/02 03:53:22;;;;;;;15.20;14.77;;;20.60;98.80;;;;;;5031383;28;20441;-51
2022/01/02 03:55:49;;;;;;;16.00;15.50;;;20.60;98.80;;;;;;5031390;28;20456;-49
2022/01/02 03:58:15;;;;;;;16.00;15.50;;;20.60;98.80;;;;;;5031627;28;20441;-52
2022/01/02 04:00:42;;;;;;;16.10;15.60;;;20.60;99.10;;;;;;5031470;28;20472;-49
2022/01/02 04:03:10;;;;;;;16.07;15.47;;;20.60;99.40;;;;;;5031414;28;20445;-50
2022/01/02 04:05:37;;;;;;;15.80;15.30;;;20.50;99.70;;;;;;5031360;28;20468;-49
2022/01/02 04:08:04;;;;;;;15.60;15.10;;;20.50;99.80;;;;;;5031478;28;20489;-51
2022/01/02 04:10:31;;;;;;;15.40;14.90;;;20.50;99.90;;;;;;5031341;28;20485;-49
2022/01/02 04:12:58;;;;;;;15.70;15.20;;;20.50;99.90;;;;;;5031268;28;20445;-50
2022/01/02 04:15:25;;;;;;;15.90;15.40;;;20.50;99.90;;;;;;5031438;28;21436;-49
2022/01/02 04:17:51;;;;;;;15.67;15.17;;;20.50;99.90;;;;;;5030851;28;20445;-50
2022/01/02 04:20:19;;;;;;;14.80;14.40;;;20.50;99.90;;;;;;5031316;28;20465;-54
2022/01/02 04:22:46;;;;;;;16.00;15.50;;;20.40;99.90;;;;;;5031034;28;20506;-51
2022/01/02 04:25:13;;;;;;;16.40;15.70;;;20.50;99.90;;;;;;5031505;28;20784;-51
2022/01/02 04:27:40;;;;;;;16.00;15.40;;;20.40;99.90;;;;;;5031395;28;20447;-53
2022/01/02 04:30:09;;;;;;;16.50;16.00;;;20.40;99.90;;;;;;5030899;28;20901;-53
2022/01/02 04:32:36;;;;;;;15.77;15.27;;;20.40;99.90;;;;;;5031088;28;20449;-53
2022/01/02 04:35:03;;;;;;;16.07;15.57;;;20.50;99.90;;;;;;5031371;28;20449;-53
2022/01/02 04:37:32;;;;;;;16.47;15.80;;;20.40;99.90;;;;;;5031188;28;20441;-56
2022/01/02 04:39:58;;;;;;;16.00;15.50;;;20.50;99.90;;;;;;5033404;28;20487;-52
2022/01/02 04:42:25;;;;;;;16.03;15.43;;;20.40;99.90;;;;;;5034873;28;20445;-54
2022/01/02 04:44:52;;;;;;;16.40;15.87;;;20.40;99.90;;;;;;5035228;28;20524;-56
2022/01/02 04:47:18;;;;;;;15.73;15.23;;;20.40;99.90;;;;;;5035052;28;20445;-51
2022/01/02 04:49:45;;;;;;;15.70;15.20;;;20.40;99.90;;;;;;5034912;28;20483;-50
2022/01/02 04:52:12;;;;;;;16.07;15.57;;;20.40;99.90;;;;;;5034838;28;20475;-54
2022/01/02 04:54:40;;;;;;;16.37;15.77;;;20.50;99.90;;;;;;5034458;28;20454;-56
2022/01/02 04:57:06;;;;;;;16.60;16.10;;;20.50;99.90;;;;;;5034896;28;20452;-50
2022/01/02 04:59:33;;;;;;;16.10;15.60;;;20.40;99.90;;;;;;5035004;28;20491;-52
2022/01/02 05:02:00;;;;;;;16.80;16.23;;;20.40;99.90;;;;;;5034527;28;20477;-55
2022/01/02 05:04:26;;;;;;;16.90;16.40;;;20.40;99.90;;;;;;5034468;28;20455;-52
2022/01/02 05:06:53;;;;;;;16.97;16.27;;;20.40;99.90;;;;;;5034795;28;20445;-52
2022/01/02 05:09:20;;;;;;;16.00;15.50;;;20.50;99.90;;;;;;5034554;28;20487;-51
2022/01/02 05:11:48;;;;;;;16.73;16.13;;;20.40;99.90;;;;;;5034415;28;20476;-53
2022/01/02 05:14:15;;;;;;;16.50;16.00;;;20.50;99.90;;;;;;5034564;28;20457;-56
2022/01/02 05:16:41;;;;;;;16.30;15.80;;;20.40;99.90;;;;;;5034149;28;20460;-52
2022/01/02 05:19:08;;;;;;;16.60;16.10;;;20.40;99.90;;;;;;5034370;28;20441;-53
2022/01/02 05:21:35;;;;;;;16.10;15.60;;;20.40;99.90;;;;;;5034373;28;20473;-51
2022/01/02 05:24:01;;;;;;;16.27;15.77;;;20.40;99.90;;;;;;5034306;28;20498;-54
2022/01/02 05:26:29;;;;;;;16.60;16.10;;;20.40;99.90;;;;;;5034307;28;20445;-52
2022/01/02 05:28:57;;;;;;;16.90;16.37;;;20.40;99.90;;;;;;5034017;28;20476;-51
2022/01/02 05:31:24;;;;;;;16.70;16.20;;;20.40;99.90;;;;;;5034374;28;20461;-52
2022/01/02 05:33:51;;;;;;;16.73;16.13;;;20.50;99.90;;;;;;5034007;28;20445;-53
2022/01/02 05:36:17;;;;;;;16.33;15.83;;;20.40;99.90;;;;;;5034173;28;21332;-51
2022/01/02 05:38:44;;;;;;;16.23;15.73;;;20.50;99.90;;;;;;5034156;28;20445;-55
2022/01/02 05:41:11;;;;;;;16.73;16.13;;;20.40;99.90;;;;;;5034101;28;20477;-56
2022/01/02 05:43:38;;;;;;;16.50;16.00;;;20.40;99.90;;;;;;5033698;28;20536;-55
2022/01/02 05:46:06;;;;;;;17.20;16.60;;;20.40;99.90;;;;;;5034013;28;20445;-57
2022/01/02 05:48:34;;;;;;;16.93;16.03;;;20.40;99.90;;;;;;5033925;28;20449;-53
2022/01/02 05:51:01;;;;;;;16.30;15.80;;;20.40;99.90;;;;;;5032675;28;20535;-54
2022/01/02 05:53:29;;;;;;;16.50;15.83;;;20.40;99.90;;;;;;5033560;28;20488;-56
2022/01/02 05:55:56;;;;;;;16.57;16.07;;;20.40;99.90;;;;;;5033715;28;20453;-55
2022/01/02 05:58:23;;;;;;;16.80;16.20;;;20.40;99.90;;;;;;5033750;28;20441;-55
2022/01/02 06:00:50;;;;;;;16.87;16.37;;;20.40;99.90;;;;;;5033433;28;20472;-56
2022/01/02 06:03:18;;;;;;;16.10;15.60;;;20.40;99.90;;;;;;5033533;28;20452;-55
2022/01/02 06:05:45;;;;;;;17.53;16.83;;;20.40;99.90;;;;;;5033384;28;20453;-57
2022/01/02 06:08:12;;;;;;;16.60;16.10;;;20.50;99.90;;;;;;5033594;28;20864;-57
2022/01/02 06:10:38;;;;;;;16.70;16.13;;;20.50;99.90;;;;;;5033197;28;20901;-55
2022/01/02 06:13:05;;;;;;;17.30;16.70;;;20.50;99.90;;;;;;5033316;28;20445;-55
2022/01/02 06:15:32;;;;;;;16.80;16.20;;;20.40;99.90;;;;;;5033491;28;20453;-52
2022/01/02 06:17:59;;;;;;;16.43;15.90;;;20.40;99.90;;;;;;5033109;28;20460;-54
2022/01/02 06:20:27;;;;;;;17.13;16.43;;;20.40;99.90;;;;;;5033252;28;20461;-51
2022/01/02 06:22:54;;;;;;;16.77;16.27;;;20.40;99.90;;;;;;5033078;28;20499;-53
2022/01/02 06:25:21;;;;;;;16.37;15.77;;;20.40;99.90;;;;;;5033273;28;20452;-51
2022/01/02 06:27:48;;;;;;;16.80;16.20;;;20.50;99.90;;;;;;5033227;28;20452;-54
2022/01/02 06:30:15;;;;;;;16.47;15.97;;;20.50;99.90;;;;;;5032859;28;20488;-51
2022/01/02 06:32:41;;;;;;;16.50;15.90;;;20.50;99.90;;;;;;5032868;28;20440;-54
2022/01/02 06:35:08;;;;;;;16.30;15.80;;;20.50;99.90;;;;;;5033026;28;20949;-52
2022/01/02 06:37:37;;;;;;;16.57;15.97;;;20.50;99.90;;;;;;5033185;28;20752;-52
2022/01/02 06:40:04;;;;;;;16.40;15.80;;;20.50;99.90;;;;;;5032992;28;20460;-54
2022/01/02 06:42:31;;;;;;;16.10;15.60;;;20.40;99.90;;;;;;5032573;28;20453;-51
2022/01/02 06:44:57;;;;;;;16.40;15.80;;;20.40;99.90;;;;;;5033161;28;20448;-54
2022/01/02 06:47:24;;;;;;;16.40;15.90;;;20.40;99.90;;;;;;5032834;28;20452;-51
2022/01/02 06:49:51;;;;;;;16.60;16.10;;;20.30;99.90;;;;;;5032614;28;20534;-53
2022/01/02 06:52:17;;;;;;;16.77;16.17;;;20.30;99.90;;;;;;5032439;28;20520;-51
2022/01/02 06:54:45;;;;;;;16.33;15.83;;;20.30;99.90;;;;;;5032688;28;20452;-51
2022/01/02 06:57:12;;;;;;;16.83;16.23;;;20.40;99.90;;;;;;5032663;28;20854;-52
2022/01/02 06:59:39;;;;;;;16.20;15.70;;;20.40;99.90;;;;;;5032627;28;20826;-51
2022/01/02 07:02:06;;;;;;;15.93;15.43;;;20.40;99.90;;;;;;5032018;28;20449;-52
2022/01/02 07:04:33;;;;;;;16.73;16.13;;;20.40;99.90;;;;;;5032416;28;20448;-50
2022/01/02 07:06:59;;;;;;;16.00;15.50;;;20.30;99.90;;;;;;5032479;28;20437;-52
2022/01/02 07:09:29;;;;;;;17.30;16.37;;;20.40;99.90;;;;;;5032568;28;20481;-51
2022/01/02 07:11:57;;;;;;;15.90;15.40;;;20.40;99.90;;;;;;5031888;28;20571;-54
2022/01/02 07:14:27;;;;;;;16.57;16.07;;;20.30;99.90;;;;;;5032301;28;20445;-50
2022/01/02 07:16:54;;;;;;;16.73;16.03;;;20.40;99.90;;;;;;5032335;28;20457;-54
2022/01/02 07:19:20;;;;;;;15.77;15.27;;;20.40;99.90;;;;;;5032162;28;20437;-51
2022/01/02 07:21:47;;;;;;;15.70;15.20;;;20.40;99.90;;;;;;5031914;28;20472;-51
2022/01/02 07:24:14;;;;;;;16.47;15.97;;;20.40;99.90;;;;;;5032032;28;20452;-54
2022/01/02 07:26:41;;;;;;;16.87;16.27;;;20.30;99.90;;;;;;5032100;28;21010;-51
2022/01/02 07:29:09;;;;;;;16.40;15.83;;;20.30;99.90;;;;;;5032095;28;20484;-51
2022/01/02 07:31:36;;;;;;;16.77;16.17;;;20.30;99.90;;;;;;5031858;28;20465;-51
2022/01/02 07:34:03;;;;;;;16.80;16.20;;;20.20;99.90;;;;;;5031935;28;20468;-51
2022/01/02 07:36:29;;;;;;;15.93;15.43;;;20.20;99.90;;;;;;5031795;28;20437;-50
2022/01/02 07:38:57;;;;;;;16.00;15.50;;;20.20;99.90;;;;;;5025083;28;20449;-57
2022/01/02 07:41:23;;;;;;;16.70;16.10;;;20.20;99.90;;;;;;5031718;28;20473;-54
2022/01/02 07:43:50;;;;;;;16.53;15.87;;;20.20;99.90;;;;;;5030635;28;20434;-52
2022/01/02 07:46:18;;;;;;;16.20;15.60;;;20.20;99.90;;;;;;5031155;28;20452;-54
2022/01/02 07:48:45;;;;;;;14.30;13.90;;;20.20;99.90;;;;;;5032034;28;20500;-53
2022/01/02 07:51:12;;;;;;;15.80;15.30;;;20.20;99.90;;;;;;5031535;28;20492;-55
2022/01/02 07:53:38;;;;;;;14.20;13.80;;;20.20;99.90;;;;;;5031544;28;20472;-54
2022/01/02 07:56:05;;;;;;;14.20;13.70;;;20.20;99.90;;;;;;5031574;28;20449;-56
2022/01/02 07:58:32;;;;;;;14.10;13.70;;;20.20;99.90;;;;;;5031771;28;20471;-58
2022/01/02 08:00:58;;;;;;;14.40;13.97;;;20.10;99.90;;;;;;5031566;28;20477;-58
2022/01/02 08:03:27;;;;;;;13.97;13.53;;;20.10;99.90;;;;;;5031498;28;20437;-55
2022/01/02 08:05:53;;;;;;;14.27;13.80;;;20.20;99.90;;;;;;5031592;28;20935;-52
2022/01/02 08:08:20;;;;;;;14.03;13.63;;;20.20;99.90;;;;;;5031233;28;20444;-53
2022/01/02 08:10:47;;;;;;;14.40;14.00;;;20.20;99.90;;;;;;5031872;28;20485;-54
2022/01/02 08:13:13;;;;;;;13.87;13.47;;;20.20;99.90;;;;;;5031251;28;20445;-54
2022/01/02 08:15:40;;;;;;;14.70;14.20;;;20.20;99.90;;;;;;5030814;28;20453;-55
2022/01/02 08:18:06;;;;;;;13.53;13.13;;;20.20;99.90;;;;;;5031343;28;20454;-57
2022/01/02 08:20:35;;;;;;;14.00;13.60;;;20.20;99.90;;;;;;5031158;28;20982;-55
2022/01/02 08:23:01;;;;;;;13.57;13.17;;;20.30;99.90;;;;;;5031145;28;20892;-51
2022/01/02 08:25:28;;;;;;;13.40;13.00;;;20.30;99.90;;;;;;5031279;28;20795;-56
2022/01/02 08:27:55;;;;;;;14.00;13.50;;;20.30;99.90;;;;;;5031333;28;20449;-57
2022/01/02 08:30:21;;;;;;;14.00;13.60;;;20.30;99.90;;;;;;5030713;28;20538;-52
2022/01/02 08:32:48;;;;;;;14.03;13.53;;;20.30;99.90;;;;;;5030981;28;20453;-60
2022/01/02 08:35:15;;;;;;;13.43;13.03;;;20.20;99.90;;;;;;5031393;28;20449;-55
2022/01/02 08:37:43;;;;;;;13.80;13.40;;;20.20;99.90;;;;;;5031236;28;20445;-58
2022/01/02 08:40:10;;;;;;;13.93;13.53;;;20.20;99.90;;;;;;5030954;28;20469;-56
2022/01/02 08:42:37;;;;;;;14.10;13.60;;;20.20;99.90;;;;;;5031130;28;20456;-56
2022/01/02 08:45:05;;;;;;;13.97;13.57;;;20.30;99.90;;;;;;5031403;28;20448;-55
2022/01/02 08:47:32;;;;;;;14.13;13.63;;;20.20;99.90;;;;;;5031400;28;20452;-58
2022/01/02 08:49:58;;;;;;;13.20;12.80;;;20.30;99.90;;;;;;5031194;28;20500;-59
2022/01/02 08:52:25;;;;;;;14.20;13.80;;;20.30;99.90;;;;;;5031085;28;20448;-56
2022/01/02 08:54:53;;;;;;;13.80;13.40;;;20.30;99.90;;;;;;5031252;28;20452;-58
2022/01/02 08:57:20;;;;;;;13.80;13.40;;;20.30;99.90;;;;;;5031515;28;20570;-58
2022/01/02 08:59:47;;;;;;;13.77;13.27;;;20.30;99.90;;;;;;5031302;28;20444;-57
2022/01/02 09:02:13;;;;;;;13.50;13.10;;;20.30;99.90;;;;;;5031525;28;20445;-53
2022/01/02 09:04:40;;;;;;;13.90;13.47;;;20.30;99.90;;;;;;5031056;28;20452;-60
2022/01/02 09:07:07;;;;;;;14.13;13.73;;;20.40;99.90;;;;;;5031042;28;20452;-58
2022/01/02 09:09:35;;;;;;;14.17;13.77;;;20.30;99.90;;;;;;5030734;28;20452;-56
2022/01/02 09:12:04;;;;;;;13.67;13.27;;;20.30;99.90;;;;;;5030860;28;20441;-57
2022/01/02 09:14:31;;;;;;;14.03;13.57;;;20.40;99.90;;;;;;5030763;28;20441;-57
2022/01/02 09:16:58;;;;;;;13.90;13.47;;;20.50;99.90;;;;;;5030857;28;20504;-57
2022/01/02 09:19:25;;;;;;;13.97;13.37;;;20.40;99.90;;;;;;5031042;28;20441;-55
2022/01/02 09:21:52;;;;;;;13.63;13.23;;;20.50;99.90;;;;;;5030810;28;20472;-53
2022/01/02 09:24:18;;;;;;;13.67;13.27;;;20.50;99.90;;;;;;5030711;28;20445;-52
2022/01/02 09:26:45;;;;;;;13.47;13.07;;;20.50;99.90;;;;;;5032539;28;20485;-53
2022/01/02 09:29:13;;;;;;;13.27;12.83;;;20.50;99.90;;;;;;5034211;28;20448;-55
2022/01/02 09:31:40;;;;;;;13.27;12.80;;;20.60;99.90;;;;;;5034025;28;20871;-56
2022/01/02 09:34:07;;;;;;;14.90;14.33;;;20.60;99.90;;;;;;5034147;28;20950;-50
2022/01/02 09:36:34;;;;;;;13.77;13.37;;;20.50;99.90;;;;;;5034366;28;20449;-57
2022/01/02 09:39:01;;;;;;;13.40;13.00;;;20.50;99.90;;;;;;5034493;28;20472;-52
2022/01/02 09:41:28;;;;;;;13.97;13.57;;;20.50;99.90;;;;;;5033903;28;20469;-54
2022/01/02 09:43:54;;;;;;;13.50;13.10;;;20.50;99.90;;;;;;5033998;28;20452;-54
2022/01/02 09:46:25;;;;;;;13.70;13.30;;;20.50;99.90;;;;;;5034008;28;20453;-53
2022/01/02 09:48:54;;;;;;;14.03;13.40;;;20.50;99.90;;;;;;5034353;28;20453;-54
2022/01/02 09:51:24;;;;;;;13.30;12.90;;;20.60;99.90;;;;;;5033904;28;20535;-52
2022/01/02 09:53:52;;;;;;;13.40;13.00;;;20.60;99.90;;;;;;5033567;28;20448;-50
2022/01/02 09:56:19;;;;;;;13.57;13.17;;;20.60;99.90;;;;;;5033788;28;20496;-50
2022/01/02 09:58:46;;;;;;;13.60;13.20;;;20.60;99.90;;;;;;5033884;28;20445;-52
2022/01/02 10:01:16;;;;;;;12.10;11.70;;;20.60;99.90;;;;;;5033677;28;20519;-53
2022/01/02 10:03:46;;;;;;;13.43;13.03;;;20.70;99.90;;;;;;5033630;28;20524;-53
2022/01/02 10:06:13;;;;;;;13.60;13.20;;;20.60;99.90;;;;;;5014169;28;20449;-52
2022/01/02 10:08:40;;;;;;;13.23;12.83;;;20.60;99.90;;;;;;5013850;28;20804;-52
2022/01/02 10:11:15;;;;;;;13.67;13.27;;;20.50;99.90;;;;;;5013576;28;20865;-47
2022/01/02 10:13:45;;;;;;;13.63;13.23;;;20.70;99.90;;;;;;5014586;28;20508;-58
2022/01/02 10:16:24;;;;;;;13.60;13.20;;;20.70;99.90;;;;;;5033335;28;20480;-59
2022/01/02 10:18:55;;;;;;;14.17;13.70;;;20.60;99.90;;;;;;5033450;28;20452;-54
2022/01/02 10:21:34;;;;;;;13.60;13.13;;;20.60;99.90;;;;;;5033426;28;21147;-56
2022/01/02 10:24:12;;;;;;;13.93;13.53;;;20.70;99.90;;;;;;5033119;28;20445;-57
2022/01/02 10:26:39;;;;;;;14.43;14.03;;;20.70;99.90;;;;;;5034026;28;20449;-57
2022/01/02 10:29:11;;;;;;;14.33;13.87;;;20.70;99.90;;;;;;5033258;28;20457;-55
2022/01/02 10:31:38;;;;;;;14.43;14.03;;;20.70;99.90;;;;;;5033283;28;20488;-58
2022/01/02 10:34:07;;;;;;;13.80;13.40;;;20.70;99.90;;;;;;5033347;28;20449;-54
2022/01/02 10:36:35;;;;;;;13.30;12.90;;;20.70;99.90;;;;;;5032980;28;20452;-59
2022/01/02 10:39:07;;;;;;;14.20;13.80;;;20.70;99.90;;;;;;5033000;28;20449;-58
2022/01/02 10:41:35;;;;;;;13.10;12.70;;;20.70;99.90;;;;;;5032836;28;20480;-54
2022/01/02 10:44:22;;;;;;;12.70;12.40;;;20.80;99.90;;;;;;5033130;28;20821;-58
2022/01/02 10:47:09;;;;;;;13.70;13.30;;;20.80;99.90;;;;;;5033084;28;20472;-59
2022/01/02 10:49:53;;;;;;;14.47;13.97;;;20.70;99.90;;;;;;5033062;28;20487;-60
2022/01/02 10:52:22;;;;;;;14.07;13.60;;;20.70;99.90;;;;;;5032466;28;20448;-53
2022/01/02 10:54:49;;;;;;;12.83;12.43;;;20.70;99.90;;;;;;5032833;28;20449;-58
2022/01/02 10:57:16;;;;;;;13.80;13.30;;;20.70;99.90;;;;;;5032657;28;20468;-58
2022/01/02 10:59:44;;;;;;;13.80;13.37;;;20.70;99.90;;;;;;5032451;28;20444;-51
2022/01/02 11:02:13;;;;;;;11.63;11.23;;;20.80;99.90;;;;;;5032111;28;20441;-53
2022/01/02 11:04:47;;;;;;;11.10;10.80;;;20.80;99.90;;;;;;5012668;28;20444;-48
2022/01/02 11:07:21;;;;;;;12.63;12.23;;;20.90;99.90;;;;;;5012811;28;20470;-49
2022/01/02 11:09:49;;;;;;;13.20;12.80;;;21.00;99.90;;;;;;5012607;28;20508;-47
2022/01/02 11:12:16;;;;;;;13.30;12.90;;;20.90;99.90;;;;;;5026966;28;20480;-48
2022/01/02 11:14:43;;;;;;;13.03;12.63;;;20.90;99.90;;;;;;5032219;28;20453;-49
2022/01/02 11:17:10;;;;;;;13.37;12.97;;;21.00;99.90;;;;;;5032316;28;20930;-48
2022/01/02 11:19:37;;;;;;;13.00;12.50;;;21.00;99.90;;;;;;5032169;28;20453;-51
2022/01/02 11:22:08;;;;;;;13.13;12.73;;;21.00;99.90;;;;;;5031483;28;20448;-56
2022/01/02 11:24:45;;;;;;;13.30;12.90;;;21.00;99.90;;;;;;5032233;28;20449;-56
2022/01/02 11:27:20;;;;;;;13.70;13.30;;;20.90;99.90;;;;;;5032317;28;20451;-50
2022/01/02 11:29:47;;;;;;;13.43;12.97;;;21.00;99.90;;;;;;5032075;28;20449;-54
2022/01/02 11:32:25;;;;;;;13.87;13.40;;;21.00;99.90;;;;;;5031975;28;21057;-56
2022/01/02 11:34:53;;;;;;;14.00;13.43;;;20.90;99.90;;;;;;5032063;28;20468;-55
2022/01/02 11:37:24;;;;;;;13.40;13.00;;;20.80;99.90;;;;;;5032032;28;20453;-50
2022/01/02 11:39:54;;;;;;;14.73;13.80;;;20.90;99.90;;;;;;5031954;28;20445;-49
2022/01/02 11:42:44;;;;;;;13.60;13.20;;;21.10;99.90;;;;;;5031337;28;20457;-50
2022/01/02 11:45:26;;;;;;;13.17;12.60;;;21.10;99.90;;;;;;5031855;28;20448;-48
2022/01/02 11:47:53;;;;;;;13.20;12.80;;;21.20;99.90;;;;;;5031823;28;20449;-49
2022/01/02 11:50:50;;;;;;;13.10;12.70;;;21.10;99.90;;;;;;5031040;28;20465;-54
2022/01/02 11:53:17;;;;;;;12.80;12.40;;;21.10;99.90;;;;;;4992455;28;20450;-53
2022/01/02 11:55:47;;;;;;;13.63;13.13;;;21.10;99.90;;;;;;5021894;28;20530;-48
2022/01/02 11:58:34;;;;;;;12.60;12.20;;;21.00;99.90;;;;;;5031786;28;20449;-52
2022/01/02 12:01:01;;;;;;;12.97;12.37;;;20.90;99.90;;;;;;5031531;28;20541;-48
2022/01/02 12:03:50;;;;;;;12.40;12.10;;;21.00;99.90;;;;;;5031204;28;20495;-49
2022/01/02 12:06:24;;;;;;;13.40;13.00;;;21.10;99.90;;;;;;5031992;28;20449;-51
2022/01/02 12:08:53;;;;;;;13.70;13.20;;;21.30;99.90;;;;;;5031703;28;20448;-48
2022/01/02 12:11:41;;;;;;;13.40;13.00;;;21.50;99.90;;;;;;5031438;28;20499;-48
2022/01/02 12:14:11;;;;;;;12.77;12.37;;;21.70;99.90;;;;;;5031591;28;20445;-53
2022/01/02 12:16:40;;;;;;;13.40;13.00;;;21.90;99.90;;;;;;5031495;28;20449;-50
2022/01/02 12:19:08;;;;;;;12.47;12.07;;;22.10;98.70;;;;;;5031781;28;20453;-55
2022/01/02 12:21:35;;;;;;;13.00;12.60;;;22.20;98.10;;;;;;5031152;28;20460;-50
2022/01/02 12:24:07;;;;;;;13.20;12.80;;;22.30;97.20;;;;;;5031734;28;20449;-49
2022/01/02 12:26:35;;;;;;;12.53;12.20;;;22.50;96.60;;;;;;5031591;28;20449;-57
2022/01/02 12:29:06;;;;;;;13.23;12.83;;;22.50;95.90;;;;;;5031348;28;20452;-57
2022/01/02 12:31:35;;;;;;;13.53;13.13;;;22.50;95.40;;;;;;5031659;28;20489;-57
2022/01/02 12:34:10;;;;;;;13.30;12.90;;;22.60;95.30;;;;;;5031571;28;20814;-48
2022/01/02 12:36:40;;;;;;;12.77;12.37;;;22.70;94.80;;;;;;5031565;28;20953;-57
2022/01/02 12:39:08;;;;;;;13.30;12.90;;;22.70;94.40;;;;;;5031454;28;20437;-47